Lila — V7HA8 — position and weather

sailwx.info

Track history (hours):
 
Tides and Currents Weather Stations Pressure Air Temp Water Temp Dewpoint Dewpoint Depression Visibility Wind Speed Wind Dir Waves Ship Positions

Lila

Last reported at 2018-Feb-17 04:47 UTC. Time now 2018-Feb-23 06:57 UTC.
Position N 41°07' E 017°32'.

Length 115 m; draft 8.3 m.

Type: Cargo ship. MMSI: 538005792.

Date/timePositionNaut miles runAvg speedWind from/ knotsBaromVisibWave heightAir tempDewpointWater temp
2018-Feb-17 04:47N 41°07' E 017°32'411.4
2018-Feb-17 04:25N 41°05' E 017°36'511.4
2018-Feb-17 04:00N 41°03' E 017°42'711.6
2018-Feb-17 03:26N 41°00' E 017°50'511.5
2018-Feb-17 02:58N 40°58' E 017°56'511.2
2018-Feb-17 02:30N 40°55' E 018°03'2111.0
2018-Feb-17 00:37N 40°42' E 018°23'2810.4
2018-Feb-16 21:54N 40°18' E 018°43'1211.0
2018-Feb-16 20:48N 40°06' E 018°40'310.3
2018-Feb-16 20:30N 40°03' E 018°40'510.5
2018-Feb-16 20:00N 39°58' E 018°39'611.0
2018-Feb-16 19:30N 39°52' E 018°37'510.8
2018-Feb-16 19:00N 39°47' E 018°35'3711.1
2018-Feb-16 15:40N 39°20' E 018°02'210.8
2018-Feb-16 15:29N 39°19' E 018°01'12910.5
2018-Feb-16 03:09N 37°40' E 016°13'1811.0
2018-Feb-16 01:32N 37°26' E 015°59'210.1
2018-Feb-16 01:20N 37°25' E 015°58'11 9.8
2018-Feb-16 00:12N 37°16' E 015°49'68 9.0
2018-Feb-15 16:38N 36°36' E 014°39'212.4
2018-Feb-15 16:30N 36°37' E 014°37'611.9
2018-Feb-15 16:01N 36°37' E 014°30'611.4
2018-Feb-15 15:30N 36°38' E 014°23'611.7
2018-Feb-15 14:59N 36°39' E 014°16'611.6
2018-Feb-15 14:31N 36°40' E 014°09'611.5
2018-Feb-15 13:59N 36°41' E 014°01'611.6
2018-Feb-15 13:31N 36°42' E 013°55'611.6
2018-Feb-15 13:00N 36°42' E 013°47'611.6
2018-Feb-15 12:30N 36°44' E 013°40'611.5
2018-Feb-15 12:00N 36°44' E 013°33'  
2018-Feb-11 22:18N 35°60' W 005°14'413.7
2018-Feb-11 22:00N 35°59' W 005°18'713.6
2018-Feb-11 21:30N 35°58' W 005°27'25910.0
2018-Feb-10 19:46N 38°18' W 009°59'311.9
2018-Feb-10 19:30N 38°21' W 010°00'612.0
2018-Feb-10 19:00N 38°27' W 010°02'611.9
2018-Feb-10 18:30N 38°32' W 010°04'611.9
2018-Feb-10 18:00N 38°38' W 010°05'611.3
2018-Feb-10 17:30N 38°44' W 010°06'611.4
2018-Feb-10 17:00N 38°50' W 010°06'611.5
2018-Feb-10 16:30N 38°55' W 010°06'611.5
2018-Feb-10 16:00N 39°01' W 010°06'611.4
2018-Feb-10 15:30N 39°07' W 010°06'611.4
2018-Feb-10 15:00N 39°12' W 010°06'  
2018-Feb-07 09:30N 50°14' W 001°25'611.6
2018-Feb-07 08:59N 50°15' W 001°15'4312.7
2018-Feb-07 05:34N 50°28' W 000°11'112.2
2018-Feb-07 05:30N 50°28' W 000°10'612.0
2018-Feb-07 05:00N 50°30' W 000°01'  
Track history (hours):
 
Tides and Currents Weather Stations Pressure Air Temp Water Temp Dewpoint Dewpoint Depression Visibility Wind Speed Wind Dir Waves Ship Positions

Lila

Last reported at 2018-Feb-17 04:47 UTC. Time now 2018-Feb-23 06:57 UTC.
Position N 41°07' E 017°32'.

Length 115 m; draft 8.3 m.

Type: Cargo ship. MMSI: 538005792.

Date/timePositionNaut miles runAvg speedWind from/ knotsBaromVisibWave heightAir tempDewpointWater temp
2018-Feb-17 04:47N 41°07' E 017°32'411.4
2018-Feb-17 04:25N 41°05' E 017°36'511.4
2018-Feb-17 04:00N 41°03' E 017°42'711.6
2018-Feb-17 03:26N 41°00' E 017°50'511.5
2018-Feb-17 02:58N 40°58' E 017°56'511.2
2018-Feb-17 02:30N 40°55' E 018°03'2111.0
2018-Feb-17 00:37N 40°42' E 018°23'2810.4
2018-Feb-16 21:54N 40°18' E 018°43'1211.0
2018-Feb-16 20:48N 40°06' E 018°40'310.3
2018-Feb-16 20:30N 40°03' E 018°40'510.5
2018-Feb-16 20:00N 39°58' E 018°39'611.0
2018-Feb-16 19:30N 39°52' E 018°37'510.8
2018-Feb-16 19:00N 39°47' E 018°35'3711.1
2018-Feb-16 15:40N 39°20' E 018°02'210.8
2018-Feb-16 15:29N 39°19' E 018°01'12910.5
2018-Feb-16 03:09N 37°40' E 016°13'1811.0
2018-Feb-16 01:32N 37°26' E 015°59'210.1
2018-Feb-16 01:20N 37°25' E 015°58'11 9.8
2018-Feb-16 00:12N 37°16' E 015°49'68 9.0
2018-Feb-15 16:38N 36°36' E 014°39'212.4
2018-Feb-15 16:30N 36°37' E 014°37'611.9
2018-Feb-15 16:01N 36°37' E 014°30'611.4
2018-Feb-15 15:30N 36°38' E 014°23'611.7
2018-Feb-15 14:59N 36°39' E 014°16'611.6
2018-Feb-15 14:31N 36°40' E 014°09'611.5
2018-Feb-15 13:59N 36°41' E 014°01'611.6
2018-Feb-15 13:31N 36°42' E 013°55'611.6
2018-Feb-15 13:00N 36°42' E 013°47'611.6
2018-Feb-15 12:30N 36°44' E 013°40'611.5
2018-Feb-15 12:00N 36°44' E 013°33'  
2018-Feb-11 22:18N 35°60' W 005°14'413.7
2018-Feb-11 22:00N 35°59' W 005°18'713.6
2018-Feb-11 21:30N 35°58' W 005°27'25910.0
2018-Feb-10 19:46N 38°18' W 009°59'311.9
2018-Feb-10 19:30N 38°21' W 010°00'612.0
2018-Feb-10 19:00N 38°27' W 010°02'611.9
2018-Feb-10 18:30N 38°32' W 010°04'611.9
2018-Feb-10 18:00N 38°38' W 010°05'611.3
2018-Feb-10 17:30N 38°44' W 010°06'611.4
2018-Feb-10 17:00N 38°50' W 010°06'611.5
2018-Feb-10 16:30N 38°55' W 010°06'611.5
2018-Feb-10 16:00N 39°01' W 010°06'611.4
2018-Feb-10 15:30N 39°07' W 010°06'611.4
2018-Feb-10 15:00N 39°12' W 010°06'  
2018-Feb-07 09:30N 50°14' W 001°25'611.6
2018-Feb-07 08:59N 50°15' W 001°15'4312.7
2018-Feb-07 05:34N 50°28' W 000°11'112.2
2018-Feb-07 05:30N 50°28' W 000°10'612.0
2018-Feb-07 05:00N 50°30' W 000°01'  

Dump ship's entire track history